sensor_id;sensor_type;location;lat;lon;timestamp;P1;durP1;ratioP1;P2;durP2;ratioP2
5391;SDS011;2719;53.624;9.786;2022-10-16T00:01:14;7.23;;;3.30;;
5391;SDS011;2719;53.624;9.786;2022-10-16T00:03:42;12.83;;;3.77;;
5391;SDS011;2719;53.624;9.786;2022-10-16T00:06:10;6.27;;;3.30;;
5391;SDS011;2719;53.624;9.786;2022-10-16T00:08:38;6.60;;;3.50;;
5391;SDS011;2719;53.624;9.786;2022-10-16T00:11:07;6.97;;;3.47;;
5391;SDS011;2719;53.624;9.786;2022-10-16T00:13:37;4.60;;;2.90;;
5391;SDS011;2719;53.624;9.786;2022-10-16T00:16:05;8.00;;;4.70;;
5391;SDS011;2719;53.624;9.786;2022-10-16T00:18:32;5.67;;;3.50;;
5391;SDS011;2719;53.624;9.786;2022-10-16T00:21:03;4.77;;;3.37;;
5391;SDS011;2719;53.624;9.786;2022-10-16T00:23:31;6.00;;;3.20;;
5391;SDS011;2719;53.624;9.786;2022-10-16T00:25:59;7.53;;;2.67;;
5391;SDS011;2719;53.624;9.786;2022-10-16T00:28:27;5.80;;;2.77;;
5391;SDS011;2719;53.624;9.786;2022-10-16T00:30:55;6.00;;;2.40;;
5391;SDS011;2719;53.624;9.786;2022-10-16T00:33:22;9.87;;;2.80;;
5391;SDS011;2719;53.624;9.786;2022-10-16T00:35:49;4.87;;;2.50;;
5391;SDS011;2719;53.624;9.786;2022-10-16T00:38:16;4.17;;;1.87;;
5391;SDS011;2719;53.624;9.786;2022-10-16T00:40:43;4.47;;;1.50;;
5391;SDS011;2719;53.624;9.786;2022-10-16T00:43:13;5.57;;;1.57;;
5391;SDS011;2719;53.624;9.786;2022-10-16T00:45:59;5.10;;;1.93;;
5391;SDS011;2719;53.624;9.786;2022-10-16T00:48:27;3.03;;;1.20;;
5391;SDS011;2719;53.624;9.786;2022-10-16T00:50:54;6.60;;;1.23;;
5391;SDS011;2719;53.624;9.786;2022-10-16T00:53:21;4.60;;;1.63;;
5391;SDS011;2719;53.624;9.786;2022-10-16T00:55:49;1.67;;;1.10;;
5391;SDS011;2719;53.624;9.786;2022-10-16T00:58:16;2.10;;;1.00;;
5391;SDS011;2719;53.624;9.786;2022-10-16T01:00:43;3.90;;;1.43;;
5391;SDS011;2719;53.624;9.786;2022-10-16T01:03:23;5.83;;;1.50;;
5391;SDS011;2719;53.624;9.786;2022-10-16T01:05:55;3.87;;;1.10;;
5391;SDS011;2719;53.624;9.786;2022-10-16T01:08:34;3.90;;;1.00;;
5391;SDS011;2719;53.624;9.786;2022-10-16T01:11:10;3.00;;;0.90;;
5391;SDS011;2719;53.624;9.786;2022-10-16T01:13:44;2.17;;;0.90;;
5391;SDS011;2719;53.624;9.786;2022-10-16T01:16:15;4.70;;;2.47;;
5391;SDS011;2719;53.624;9.786;2022-10-16T01:18:52;3.53;;;1.27;;
5391;SDS011;2719;53.624;9.786;2022-10-16T01:21:24;4.03;;;1.23;;
5391;SDS011;2719;53.624;9.786;2022-10-16T01:23:59;5.23;;;0.90;;
5391;SDS011;2719;53.624;9.786;2022-10-16T01:26:36;6.27;;;1.20;;
5391;SDS011;2719;53.624;9.786;2022-10-16T01:29:16;6.10;;;1.00;;
5391;SDS011;2719;53.624;9.786;2022-10-16T01:31:47;3.33;;;1.17;;
5391;SDS011;2719;53.624;9.786;2022-10-16T01:34:17;10.83;;;2.03;;
5391;SDS011;2719;53.624;9.786;2022-10-16T01:36:49;5.83;;;1.00;;
5391;SDS011;2719;53.624;9.786;2022-10-16T01:39:20;2.80;;;0.87;;
5391;SDS011;2719;53.624;9.786;2022-10-16T01:41:51;3.40;;;1.20;;
5391;SDS011;2719;53.624;9.786;2022-10-16T01:44:25;3.00;;;0.70;;
5391;SDS011;2719;53.624;9.786;2022-10-16T01:46:55;6.40;;;0.73;;
5391;SDS011;2719;53.624;9.786;2022-10-16T01:49:23;9.30;;;1.23;;
5391;SDS011;2719;53.624;9.786;2022-10-16T01:51:54;5.83;;;1.17;;
5391;SDS011;2719;53.624;9.786;2022-10-16T01:54:23;3.93;;;0.70;;
5391;SDS011;2719;53.624;9.786;2022-10-16T01:56:54;1.60;;;1.23;;
5391;SDS011;2719;53.624;9.786;2022-10-16T01:59:22;9.13;;;1.37;;
5391;SDS011;2719;53.624;9.786;2022-10-16T02:01:54;3.80;;;0.80;;
5391;SDS011;2719;53.624;9.786;2022-10-16T02:04:26;4.87;;;1.33;;
5391;SDS011;2719;53.624;9.786;2022-10-16T02:06:56;8.70;;;1.10;;
5391;SDS011;2719;53.624;9.786;2022-10-16T02:09:23;2.33;;;1.00;;
5391;SDS011;2719;53.624;9.786;2022-10-16T02:11:50;3.30;;;1.33;;
5391;SDS011;2719;53.624;9.786;2022-10-16T02:14:20;1.93;;;0.80;;
5391;SDS011;2719;53.624;9.786;2022-10-16T02:16:50;3.57;;;0.80;;
5391;SDS011;2719;53.624;9.786;2022-10-16T02:19:17;3.20;;;0.80;;
5391;SDS011;2719;53.624;9.786;2022-10-16T02:21:48;7.87;;;1.10;;
5391;SDS011;2719;53.624;9.786;2022-10-16T02:24:19;1.90;;;0.60;;
5391;SDS011;2719;53.624;9.786;2022-10-16T02:26:52;2.70;;;0.70;;
5391;SDS011;2719;53.624;9.786;2022-10-16T02:29:27;5.63;;;0.60;;
5391;SDS011;2719;53.624;9.786;2022-10-16T02:31:56;4.10;;;0.80;;
5391;SDS011;2719;53.624;9.786;2022-10-16T02:34:26;4.70;;;1.00;;
5391;SDS011;2719;53.624;9.786;2022-10-16T02:36:54;3.07;;;0.70;;
5391;SDS011;2719;53.624;9.786;2022-10-16T02:39:22;3.87;;;0.60;;
5391;SDS011;2719;53.624;9.786;2022-10-16T02:41:49;2.37;;;0.80;;
5391;SDS011;2719;53.624;9.786;2022-10-16T02:44:16;4.10;;;0.70;;
5391;SDS011;2719;53.624;9.786;2022-10-16T02:46:42;6.33;;;1.00;;
5391;SDS011;2719;53.624;9.786;2022-10-16T02:49:10;3.60;;;0.63;;
5391;SDS011;2719;53.624;9.786;2022-10-16T02:51:37;5.23;;;0.77;;
5391;SDS011;2719;53.624;9.786;2022-10-16T02:54:04;5.53;;;0.63;;
5391;SDS011;2719;53.624;9.786;2022-10-16T02:56:30;2.13;;;0.60;;
5391;SDS011;2719;53.624;9.786;2022-10-16T02:58:57;11.37;;;0.90;;
5391;SDS011;2719;53.624;9.786;2022-10-16T03:01:24;4.63;;;0.77;;
5391;SDS011;2719;53.624;9.786;2022-10-16T03:03:51;2.70;;;0.60;;
5391;SDS011;2719;53.624;9.786;2022-10-16T03:06:19;5.23;;;0.73;;
5391;SDS011;2719;53.624;9.786;2022-10-16T03:08:45;2.30;;;0.60;;
5391;SDS011;2719;53.624;9.786;2022-10-16T03:11:12;3.37;;;0.50;;
5391;SDS011;2719;53.624;9.786;2022-10-16T03:13:38;2.13;;;0.60;;
5391;SDS011;2719;53.624;9.786;2022-10-16T03:16:05;3.43;;;0.77;;
5391;SDS011;2719;53.624;9.786;2022-10-16T03:18:32;2.20;;;0.60;;
5391;SDS011;2719;53.624;9.786;2022-10-16T03:20:59;1.93;;;0.73;;
5391;SDS011;2719;53.624;9.786;2022-10-16T03:23:26;3.80;;;0.70;;
5391;SDS011;2719;53.624;9.786;2022-10-16T03:25:53;5.43;;;0.63;;
5391;SDS011;2719;53.624;9.786;2022-10-16T03:28:20;3.30;;;0.60;;
5391;SDS011;2719;53.624;9.786;2022-10-16T03:30:47;1.67;;;0.57;;
5391;SDS011;2719;53.624;9.786;2022-10-16T03:33:13;10.60;;;1.60;;
5391;SDS011;2719;53.624;9.786;2022-10-16T03:35:40;1.97;;;0.50;;
5391;SDS011;2719;53.624;9.786;2022-10-16T03:38:07;5.23;;;0.63;;
5391;SDS011;2719;53.624;9.786;2022-10-16T03:40:35;3.63;;;1.10;;
5391;SDS011;2719;53.624;9.786;2022-10-16T03:43:01;4.07;;;0.70;;
5391;SDS011;2719;53.624;9.786;2022-10-16T03:45:28;5.70;;;1.07;;
5391;SDS011;2719;53.624;9.786;2022-10-16T03:47:54;9.37;;;0.70;;
5391;SDS011;2719;53.624;9.786;2022-10-16T03:50:21;2.93;;;0.63;;
5391;SDS011;2719;53.624;9.786;2022-10-16T03:52:48;7.83;;;0.90;;
5391;SDS011;2719;53.624;9.786;2022-10-16T03:55:14;3.57;;;0.60;;
5391;SDS011;2719;53.624;9.786;2022-10-16T03:57:42;2.40;;;0.60;;
5391;SDS011;2719;53.624;9.786;2022-10-16T04:00:10;10.47;;;0.70;;
5391;SDS011;2719;53.624;9.786;2022-10-16T04:02:37;5.20;;;2.27;;
5391;SDS011;2719;53.624;9.786;2022-10-16T04:05:04;4.60;;;0.60;;
5391;SDS011;2719;53.624;9.786;2022-10-16T04:07:31;5.93;;;0.80;;
5391;SDS011;2719;53.624;9.786;2022-10-16T04:09:58;5.47;;;1.47;;
5391;SDS011;2719;53.624;9.786;2022-10-16T04:12:25;1.80;;;0.70;;
5391;SDS011;2719;53.624;9.786;2022-10-16T04:14:53;8.03;;;1.00;;
5391;SDS011;2719;53.624;9.786;2022-10-16T04:17:20;2.33;;;0.60;;
5391;SDS011;2719;53.624;9.786;2022-10-16T04:19:46;4.93;;;0.63;;
5391;SDS011;2719;53.624;9.786;2022-10-16T04:22:13;4.37;;;0.93;;
5391;SDS011;2719;53.624;9.786;2022-10-16T04:24:40;2.50;;;0.80;;
5391;SDS011;2719;53.624;9.786;2022-10-16T04:27:06;3.37;;;0.70;;
5391;SDS011;2719;53.624;9.786;2022-10-16T04:29:33;2.60;;;1.00;;
5391;SDS011;2719;53.624;9.786;2022-10-16T04:32:01;3.03;;;0.70;;
5391;SDS011;2719;53.624;9.786;2022-10-16T04:34:27;5.53;;;0.77;;
5391;SDS011;2719;53.624;9.786;2022-10-16T04:36:54;4.30;;;0.60;;
5391;SDS011;2719;53.624;9.786;2022-10-16T04:39:21;5.80;;;0.83;;
5391;SDS011;2719;53.624;9.786;2022-10-16T04:41:48;5.30;;;0.83;;
5391;SDS011;2719;53.624;9.786;2022-10-16T04:44:14;6.20;;;0.77;;
5391;SDS011;2719;53.624;9.786;2022-10-16T04:46:41;1.63;;;0.50;;
5391;SDS011;2719;53.624;9.786;2022-10-16T04:49:10;1.77;;;0.70;;
5391;SDS011;2719;53.624;9.786;2022-10-16T04:51:37;4.57;;;1.00;;
5391;SDS011;2719;53.624;9.786;2022-10-16T04:54:03;2.30;;;0.77;;
5391;SDS011;2719;53.624;9.786;2022-10-16T04:56:30;8.03;;;0.80;;
5391;SDS011;2719;53.624;9.786;2022-10-16T04:58:57;6.10;;;0.83;;
5391;SDS011;2719;53.624;9.786;2022-10-16T05:01:24;1.90;;;0.50;;
5391;SDS011;2719;53.624;9.786;2022-10-16T05:03:50;6.53;;;0.90;;
5391;SDS011;2719;53.624;9.786;2022-10-16T05:06:18;4.43;;;0.80;;
5391;SDS011;2719;53.624;9.786;2022-10-16T05:08:45;5.70;;;0.90;;
5391;SDS011;2719;53.624;9.786;2022-10-16T05:11:12;4.43;;;0.90;;
5391;SDS011;2719;53.624;9.786;2022-10-16T05:13:38;11.10;;;1.03;;
5391;SDS011;2719;53.624;9.786;2022-10-16T05:16:05;4.30;;;1.30;;
5391;SDS011;2719;53.624;9.786;2022-10-16T05:18:32;2.53;;;0.70;;
5391;SDS011;2719;53.624;9.786;2022-10-16T05:20:58;7.53;;;1.30;;
5391;SDS011;2719;53.624;9.786;2022-10-16T05:23:26;2.60;;;1.00;;
5391;SDS011;2719;53.624;9.786;2022-10-16T05:25:53;3.83;;;1.07;;
5391;SDS011;2719;53.624;9.786;2022-10-16T05:28:23;2.93;;;0.80;;
5391;SDS011;2719;53.624;9.786;2022-10-16T05:30:50;8.43;;;1.50;;
5391;SDS011;2719;53.624;9.786;2022-10-16T05:33:16;2.33;;;0.80;;
5391;SDS011;2719;53.624;9.786;2022-10-16T05:35:45;8.77;;;1.10;;
5391;SDS011;2719;53.624;9.786;2022-10-16T05:38:12;8.30;;;1.20;;
5391;SDS011;2719;53.624;9.786;2022-10-16T05:40:40;3.87;;;1.07;;
5391;SDS011;2719;53.624;9.786;2022-10-16T05:43:07;4.47;;;1.93;;
5391;SDS011;2719;53.624;9.786;2022-10-16T05:45:33;2.80;;;1.10;;
5391;SDS011;2719;53.624;9.786;2022-10-16T05:48:00;5.23;;;1.50;;
5391;SDS011;2719;53.624;9.786;2022-10-16T05:50:27;7.63;;;1.20;;
5391;SDS011;2719;53.624;9.786;2022-10-16T05:52:54;2.60;;;1.23;;
5391;SDS011;2719;53.624;9.786;2022-10-16T05:55:20;3.10;;;1.03;;
5391;SDS011;2719;53.624;9.786;2022-10-16T05:57:48;1.90;;;1.20;;
5391;SDS011;2719;53.624;9.786;2022-10-16T06:00:15;3.90;;;1.23;;
5391;SDS011;2719;53.624;9.786;2022-10-16T06:02:42;7.90;;;1.83;;
5391;SDS011;2719;53.624;9.786;2022-10-16T06:05:08;6.60;;;1.77;;
5391;SDS011;2719;53.624;9.786;2022-10-16T06:07:35;6.00;;;1.80;;
5391;SDS011;2719;53.624;9.786;2022-10-16T06:10:02;2.07;;;1.30;;
5391;SDS011;2719;53.624;9.786;2022-10-16T06:12:30;4.53;;;1.40;;
5391;SDS011;2719;53.624;9.786;2022-10-16T06:14:58;3.50;;;1.13;;
5391;SDS011;2719;53.624;9.786;2022-10-16T06:17:24;4.13;;;1.33;;
5391;SDS011;2719;53.624;9.786;2022-10-16T06:19:51;8.03;;;2.10;;
5391;SDS011;2719;53.624;9.786;2022-10-16T06:22:18;6.80;;;2.50;;
5391;SDS011;2719;53.624;9.786;2022-10-16T06:24:45;4.60;;;1.37;;
5391;SDS011;2719;53.624;9.786;2022-10-16T06:27:12;6.90;;;1.00;;
5391;SDS011;2719;53.624;9.786;2022-10-16T06:29:39;2.23;;;1.20;;
5391;SDS011;2719;53.624;9.786;2022-10-16T06:32:07;7.00;;;1.70;;
5391;SDS011;2719;53.624;9.786;2022-10-16T06:34:34;4.67;;;1.77;;
5391;SDS011;2719;53.624;9.786;2022-10-16T06:37:01;4.87;;;1.30;;
5391;SDS011;2719;53.624;9.786;2022-10-16T06:39:28;6.20;;;1.10;;
5391;SDS011;2719;53.624;9.786;2022-10-16T06:41:54;8.73;;;1.57;;
5391;SDS011;2719;53.624;9.786;2022-10-16T06:44:21;9.37;;;1.03;;
5391;SDS011;2719;53.624;9.786;2022-10-16T06:46:48;4.50;;;1.57;;
5391;SDS011;2719;53.624;9.786;2022-10-16T06:49:16;3.40;;;1.10;;
5391;SDS011;2719;53.624;9.786;2022-10-16T06:51:47;4.37;;;1.10;;
5391;SDS011;2719;53.624;9.786;2022-10-16T06:54:14;6.77;;;1.20;;
5391;SDS011;2719;53.624;9.786;2022-10-16T06:56:41;6.20;;;2.10;;
5391;SDS011;2719;53.624;9.786;2022-10-16T06:59:08;7.10;;;2.33;;
5391;SDS011;2719;53.624;9.786;2022-10-16T07:01:34;17.33;;;3.73;;
5391;SDS011;2719;53.624;9.786;2022-10-16T07:04:01;2.77;;;1.13;;
5391;SDS011;2719;53.624;9.786;2022-10-16T07:06:30;11.53;;;1.20;;
5391;SDS011;2719;53.624;9.786;2022-10-16T07:08:58;5.27;;;1.20;;
5391;SDS011;2719;53.624;9.786;2022-10-16T07:11:26;3.47;;;1.40;;
5391;SDS011;2719;53.624;9.786;2022-10-16T07:13:53;13.70;;;1.67;;
5391;SDS011;2719;53.624;9.786;2022-10-16T07:16:20;4.83;;;1.57;;
5391;SDS011;2719;53.624;9.786;2022-10-16T07:18:48;6.23;;;2.13;;
5391;SDS011;2719;53.624;9.786;2022-10-16T07:21:17;3.23;;;1.60;;
5391;SDS011;2719;53.624;9.786;2022-10-16T07:23:49;2.33;;;1.30;;
5391;SDS011;2719;53.624;9.786;2022-10-16T07:26:16;7.10;;;1.63;;
5391;SDS011;2719;53.624;9.786;2022-10-16T07:28:43;2.20;;;1.03;;
5391;SDS011;2719;53.624;9.786;2022-10-16T07:31:10;5.13;;;1.30;;
5391;SDS011;2719;53.624;9.786;2022-10-16T07:33:39;2.40;;;1.43;;
5391;SDS011;2719;53.624;9.786;2022-10-16T07:36:09;4.43;;;1.70;;
5391;SDS011;2719;53.624;9.786;2022-10-16T07:38:36;1.90;;;1.60;;
5391;SDS011;2719;53.624;9.786;2022-10-16T07:41:04;5.53;;;2.40;;
5391;SDS011;2719;53.624;9.786;2022-10-16T07:43:33;5.13;;;1.80;;
5391;SDS011;2719;53.624;9.786;2022-10-16T07:46:00;2.57;;;1.27;;
5391;SDS011;2719;53.624;9.786;2022-10-16T07:48:27;8.10;;;2.20;;
5391;SDS011;2719;53.624;9.786;2022-10-16T07:50:56;8.23;;;2.30;;
5391;SDS011;2719;53.624;9.786;2022-10-16T07:53:24;4.43;;;1.80;;
5391;SDS011;2719;53.624;9.786;2022-10-16T07:55:50;5.13;;;1.50;;
5391;SDS011;2719;53.624;9.786;2022-10-16T07:58:18;5.37;;;1.40;;
5391;SDS011;2719;53.624;9.786;2022-10-16T08:00:45;7.30;;;1.90;;
5391;SDS011;2719;53.624;9.786;2022-10-16T08:03:12;2.57;;;1.50;;
5391;SDS011;2719;53.624;9.786;2022-10-16T08:05:38;6.70;;;1.77;;
5391;SDS011;2719;53.624;9.786;2022-10-16T08:08:05;4.80;;;1.37;;
5391;SDS011;2719;53.624;9.786;2022-10-16T08:10:32;10.03;;;2.10;;
5391;SDS011;2719;53.624;9.786;2022-10-16T08:12:58;11.50;;;3.07;;
5391;SDS011;2719;53.624;9.786;2022-10-16T08:15:26;3.83;;;1.87;;
5391;SDS011;2719;53.624;9.786;2022-10-16T08:17:57;8.73;;;2.50;;
5391;SDS011;2719;53.624;9.786;2022-10-16T08:20:24;3.30;;;1.70;;
5391;SDS011;2719;53.624;9.786;2022-10-16T08:22:51;4.27;;;1.87;;
5391;SDS011;2719;53.624;9.786;2022-10-16T08:25:18;4.70;;;1.70;;
5391;SDS011;2719;53.624;9.786;2022-10-16T08:27:45;5.43;;;1.50;;
5391;SDS011;2719;53.624;9.786;2022-10-16T08:30:12;4.30;;;1.60;;
5391;SDS011;2719;53.624;9.786;2022-10-16T08:32:40;3.90;;;1.27;;
5391;SDS011;2719;53.624;9.786;2022-10-16T08:35:07;5.20;;;1.47;;
5391;SDS011;2719;53.624;9.786;2022-10-16T08:37:35;4.40;;;1.60;;
5391;SDS011;2719;53.624;9.786;2022-10-16T08:40:02;3.40;;;1.00;;
5391;SDS011;2719;53.624;9.786;2022-10-16T08:42:32;3.10;;;0.90;;
5391;SDS011;2719;53.624;9.786;2022-10-16T08:45:08;4.33;;;1.10;;
5391;SDS011;2719;53.624;9.786;2022-10-16T08:47:48;5.10;;;1.73;;
5391;SDS011;2719;53.624;9.786;2022-10-16T08:50:22;9.13;;;1.77;;
5391;SDS011;2719;53.624;9.786;2022-10-16T08:52:52;7.27;;;1.57;;
5391;SDS011;2719;53.624;9.786;2022-10-16T08:55:29;4.77;;;1.40;;
5391;SDS011;2719;53.624;9.786;2022-10-16T08:58:00;7.47;;;1.60;;
5391;SDS011;2719;53.624;9.786;2022-10-16T09:00:26;6.80;;;2.43;;
5391;SDS011;2719;53.624;9.786;2022-10-16T09:02:57;1.67;;;0.90;;
5391;SDS011;2719;53.624;9.786;2022-10-16T09:08:38;1.87;;;0.90;;
5391;SDS011;2719;53.624;9.786;2022-10-16T09:11:16;1.77;;;0.93;;
5391;SDS011;2719;53.624;9.786;2022-10-16T09:13:50;2.20;;;0.80;;
5391;SDS011;2719;53.624;9.786;2022-10-16T09:16:24;3.90;;;1.40;;
5391;SDS011;2719;53.624;9.786;2022-10-16T09:18:59;5.03;;;1.00;;
5391;SDS011;2719;53.624;9.786;2022-10-16T09:21:30;2.23;;;1.10;;
5391;SDS011;2719;53.624;9.786;2022-10-16T09:23:59;5.83;;;1.00;;
5391;SDS011;2719;53.624;9.786;2022-10-16T09:26:36;2.37;;;0.80;;
5391;SDS011;2719;53.624;9.786;2022-10-16T09:29:03;5.60;;;1.20;;
5391;SDS011;2719;53.624;9.786;2022-10-16T09:31:29;3.90;;;1.30;;
5391;SDS011;2719;53.624;9.786;2022-10-16T09:33:59;1.43;;;0.77;;
5391;SDS011;2719;53.624;9.786;2022-10-16T09:36:29;2.80;;;1.33;;
5391;SDS011;2719;53.624;9.786;2022-10-16T09:39:02;7.33;;;1.10;;
5391;SDS011;2719;53.624;9.786;2022-10-16T09:41:30;3.47;;;1.27;;
5391;SDS011;2719;53.624;9.786;2022-10-16T09:44:01;9.33;;;1.43;;
5391;SDS011;2719;53.624;9.786;2022-10-16T09:46:29;4.13;;;0.77;;
5391;SDS011;2719;53.624;9.786;2022-10-16T09:48:59;2.23;;;0.90;;
5391;SDS011;2719;53.624;9.786;2022-10-16T09:51:28;4.53;;;1.07;;
5391;SDS011;2719;53.624;9.786;2022-10-16T09:53:56;2.90;;;0.70;;
5391;SDS011;2719;53.624;9.786;2022-10-16T09:56:26;3.57;;;0.73;;
5391;SDS011;2719;53.624;9.786;2022-10-16T09:58:55;2.10;;;0.60;;
5391;SDS011;2719;53.624;9.786;2022-10-16T10:01:24;2.27;;;0.70;;
5391;SDS011;2719;53.624;9.786;2022-10-16T10:03:55;9.63;;;1.03;;
5391;SDS011;2719;53.624;9.786;2022-10-16T10:06:28;11.67;;;0.90;;
5391;SDS011;2719;53.624;9.786;2022-10-16T10:09:00;5.67;;;1.13;;
5391;SDS011;2719;53.624;9.786;2022-10-16T10:11:37;7.17;;;0.93;;
5391;SDS011;2719;53.624;9.786;2022-10-16T10:14:05;7.70;;;0.80;;
5391;SDS011;2719;53.624;9.786;2022-10-16T10:16:32;7.23;;;0.60;;
5391;SDS011;2719;53.624;9.786;2022-10-16T10:18:58;3.00;;;0.67;;
5391;SDS011;2719;53.624;9.786;2022-10-16T10:21:27;2.00;;;0.80;;
5391;SDS011;2719;53.624;9.786;2022-10-16T10:23:56;4.20;;;0.60;;
5391;SDS011;2719;53.624;9.786;2022-10-16T10:26:24;3.67;;;0.80;;
5391;SDS011;2719;53.624;9.786;2022-10-16T10:28:57;6.77;;;0.70;;
5391;SDS011;2719;53.624;9.786;2022-10-16T10:31:31;2.30;;;0.77;;
5391;SDS011;2719;53.624;9.786;2022-10-16T10:34:05;4.00;;;0.70;;
5391;SDS011;2719;53.624;9.786;2022-10-16T10:36:46;6.00;;;0.60;;
5391;SDS011;2719;53.624;9.786;2022-10-16T10:39:20;6.90;;;0.70;;
5391;SDS011;2719;53.624;9.786;2022-10-16T10:42:00;5.13;;;0.70;;
5391;SDS011;2719;53.624;9.786;2022-10-16T10:44:47;2.57;;;0.67;;
5391;SDS011;2719;53.624;9.786;2022-10-16T10:47:25;7.03;;;0.70;;
5391;SDS011;2719;53.624;9.786;2022-10-16T10:50:07;5.37;;;0.67;;
5391;SDS011;2719;53.624;9.786;2022-10-16T10:52:46;4.40;;;0.50;;
5391;SDS011;2719;53.624;9.786;2022-10-16T10:55:26;2.47;;;0.57;;
5391;SDS011;2719;53.624;9.786;2022-10-16T10:58:04;4.30;;;1.17;;
5391;SDS011;2719;53.624;9.786;2022-10-16T11:00:42;2.60;;;0.53;;
5391;SDS011;2719;53.624;9.786;2022-10-16T11:03:24;4.00;;;0.87;;
5391;SDS011;2719;53.624;9.786;2022-10-16T11:06:02;2.20;;;0.60;;
5391;SDS011;2719;53.624;9.786;2022-10-16T11:08:36;1.33;;;0.60;;
5391;SDS011;2719;53.624;9.786;2022-10-16T11:11:08;4.60;;;1.00;;
5391;SDS011;2719;53.624;9.786;2022-10-16T11:13:38;3.43;;;0.80;;
5391;SDS011;2719;53.624;9.786;2022-10-16T11:16:13;4.20;;;0.60;;
5391;SDS011;2719;53.624;9.786;2022-10-16T11:18:46;5.33;;;0.63;;
5391;SDS011;2719;53.624;9.786;2022-10-16T11:21:17;4.30;;;0.60;;
5391;SDS011;2719;53.624;9.786;2022-10-16T11:23:50;1.97;;;0.50;;
5391;SDS011;2719;53.624;9.786;2022-10-16T11:26:19;3.87;;;0.60;;
5391;SDS011;2719;53.624;9.786;2022-10-16T11:28:49;4.50;;;0.60;;
5391;SDS011;2719;53.624;9.786;2022-10-16T11:31:19;4.53;;;0.40;;
5391;SDS011;2719;53.624;9.786;2022-10-16T11:33:54;3.33;;;0.57;;
5391;SDS011;2719;53.624;9.786;2022-10-16T11:36:31;5.53;;;1.07;;
5391;SDS011;2719;53.624;9.786;2022-10-16T11:39:08;8.20;;;0.63;;
5391;SDS011;2719;53.624;9.786;2022-10-16T11:41:44;2.70;;;0.50;;
5391;SDS011;2719;53.624;9.786;2022-10-16T11:44:16;3.33;;;0.60;;
5391;SDS011;2719;53.624;9.786;2022-10-16T11:46:53;1.63;;;0.50;;
5391;SDS011;2719;53.624;9.786;2022-10-16T11:49:27;3.67;;;0.60;;
5391;SDS011;2719;53.624;9.786;2022-10-16T11:51:59;5.60;;;0.60;;
5391;SDS011;2719;53.624;9.786;2022-10-16T11:54:35;5.70;;;1.27;;
5391;SDS011;2719;53.624;9.786;2022-10-16T11:57:10;2.77;;;0.60;;
5391;SDS011;2719;53.624;9.786;2022-10-16T11:59:42;2.70;;;0.50;;
5391;SDS011;2719;53.624;9.786;2022-10-16T12:02:28;2.17;;;0.53;;
5391;SDS011;2719;53.624;9.786;2022-10-16T12:05:02;1.73;;;0.50;;
5391;SDS011;2719;53.624;9.786;2022-10-16T12:07:39;2.20;;;0.43;;
5391;SDS011;2719;53.624;9.786;2022-10-16T12:10:20;2.90;;;0.60;;
5391;SDS011;2719;53.624;9.786;2022-10-16T12:12:48;5.00;;;0.60;;
5391;SDS011;2719;53.624;9.786;2022-10-16T12:15:20;3.70;;;0.57;;
5391;SDS011;2719;53.624;9.786;2022-10-16T12:17:48;2.10;;;0.53;;
5391;SDS011;2719;53.624;9.786;2022-10-16T12:20:20;4.10;;;0.60;;
5391;SDS011;2719;53.624;9.786;2022-10-16T12:22:53;2.50;;;0.50;;
5391;SDS011;2719;53.624;9.786;2022-10-16T12:25:25;6.83;;;0.60;;
5391;SDS011;2719;53.624;9.786;2022-10-16T12:27:55;9.20;;;1.23;;
5391;SDS011;2719;53.624;9.786;2022-10-16T12:30:30;5.53;;;0.60;;
5391;SDS011;2719;53.624;9.786;2022-10-16T12:32:59;3.93;;;1.10;;
5391;SDS011;2719;53.624;9.786;2022-10-16T12:35:29;4.93;;;0.60;;
5391;SDS011;2719;53.624;9.786;2022-10-16T12:38:05;2.13;;;0.80;;
5391;SDS011;2719;53.624;9.786;2022-10-16T12:40:36;19.13;;;1.43;;
5391;SDS011;2719;53.624;9.786;2022-10-16T12:43:26;2.83;;;0.60;;
5391;SDS011;2719;53.624;9.786;2022-10-16T12:46:01;3.97;;;0.73;;
5391;SDS011;2719;53.624;9.786;2022-10-16T12:48:30;5.40;;;0.90;;
5391;SDS011;2719;53.624;9.786;2022-10-16T12:50:57;2.80;;;0.53;;
5391;SDS011;2719;53.624;9.786;2022-10-16T12:53:35;1.40;;;0.40;;
5391;SDS011;2719;53.624;9.786;2022-10-16T12:56:05;5.23;;;0.53;;
5391;SDS011;2719;53.624;9.786;2022-10-16T12:58:47;9.63;;;0.70;;
5391;SDS011;2719;53.624;9.786;2022-10-16T13:01:29;4.27;;;0.70;;
5391;SDS011;2719;53.624;9.786;2022-10-16T13:04:11;3.77;;;1.47;;
5391;SDS011;2719;53.624;9.786;2022-10-16T13:06:49;7.43;;;0.50;;
5391;SDS011;2719;53.624;9.786;2022-10-16T13:09:27;5.47;;;0.70;;
5391;SDS011;2719;53.624;9.786;2022-10-16T13:12:09;2.10;;;0.53;;
5391;SDS011;2719;53.624;9.786;2022-10-16T13:14:58;7.87;;;0.60;;
5391;SDS011;2719;53.624;9.786;2022-10-16T13:17:37;7.70;;;0.53;;
5391;SDS011;2719;53.624;9.786;2022-10-16T13:20:14;5.43;;;0.53;;
5391;SDS011;2719;53.624;9.786;2022-10-16T13:22:49;9.43;;;1.20;;
5391;SDS011;2719;53.624;9.786;2022-10-16T13:25:26;3.67;;;0.70;;
5391;SDS011;2719;53.624;9.786;2022-10-16T13:28:02;5.80;;;0.60;;
5391;SDS011;2719;53.624;9.786;2022-10-16T13:30:31;11.37;;;0.60;;
5391;SDS011;2719;53.624;9.786;2022-10-16T13:33:03;3.07;;;1.30;;
5391;SDS011;2719;53.624;9.786;2022-10-16T13:35:34;7.07;;;0.50;;
5391;SDS011;2719;53.624;9.786;2022-10-16T13:38:05;5.00;;;1.13;;
5391;SDS011;2719;53.624;9.786;2022-10-16T13:40:47;4.50;;;0.50;;
5391;SDS011;2719;53.624;9.786;2022-10-16T13:43:20;5.53;;;0.80;;
5391;SDS011;2719;53.624;9.786;2022-10-16T13:48:22;2.50;;;0.50;;
5391;SDS011;2719;53.624;9.786;2022-10-16T13:50:59;6.33;;;0.50;;
5391;SDS011;2719;53.624;9.786;2022-10-16T13:53:32;6.77;;;0.60;;
5391;SDS011;2719;53.624;9.786;2022-10-16T13:56:02;5.90;;;0.60;;
5391;SDS011;2719;53.624;9.786;2022-10-16T13:58:31;2.30;;;0.60;;
5391;SDS011;2719;53.624;9.786;2022-10-16T14:00:59;5.53;;;0.50;;
5391;SDS011;2719;53.624;9.786;2022-10-16T14:03:27;7.30;;;0.50;;
5391;SDS011;2719;53.624;9.786;2022-10-16T14:05:56;5.60;;;0.50;;
5391;SDS011;2719;53.624;9.786;2022-10-16T14:08:26;3.63;;;0.50;;
5391;SDS011;2719;53.624;9.786;2022-10-16T14:10:55;2.83;;;0.67;;
5391;SDS011;2719;53.624;9.786;2022-10-16T14:13:27;2.30;;;0.50;;
5391;SDS011;2719;53.624;9.786;2022-10-16T14:15:57;2.43;;;0.80;;
5391;SDS011;2719;53.624;9.786;2022-10-16T14:18:28;1.93;;;0.50;;
5391;SDS011;2719;53.624;9.786;2022-10-16T14:21:02;2.63;;;0.60;;
5391;SDS011;2719;53.624;9.786;2022-10-16T14:23:30;4.10;;;0.50;;
5391;SDS011;2719;53.624;9.786;2022-10-16T14:26:06;9.60;;;0.70;;
5391;SDS011;2719;53.624;9.786;2022-10-16T14:28:40;4.50;;;0.50;;
5391;SDS011;2719;53.624;9.786;2022-10-16T14:31:22;3.37;;;0.50;;
5391;SDS011;2719;53.624;9.786;2022-10-16T14:33:51;2.50;;;0.50;;
5391;SDS011;2719;53.624;9.786;2022-10-16T14:36:18;1.73;;;0.70;;
5391;SDS011;2719;53.624;9.786;2022-10-16T14:38:48;1.57;;;0.50;;
5391;SDS011;2719;53.624;9.786;2022-10-16T14:41:19;8.43;;;0.73;;
5391;SDS011;2719;53.624;9.786;2022-10-16T14:43:49;5.23;;;0.70;;
5391;SDS011;2719;53.624;9.786;2022-10-16T14:46:19;4.73;;;0.60;;
5391;SDS011;2719;53.624;9.786;2022-10-16T14:48:51;1.63;;;0.60;;
5391;SDS011;2719;53.624;9.786;2022-10-16T14:51:26;2.50;;;0.50;;
5391;SDS011;2719;53.624;9.786;2022-10-16T14:53:53;8.63;;;2.07;;
5391;SDS011;2719;53.624;9.786;2022-10-16T14:56:20;5.90;;;0.60;;
5391;SDS011;2719;53.624;9.786;2022-10-16T14:58:48;8.13;;;0.60;;
5391;SDS011;2719;53.624;9.786;2022-10-16T15:01:16;3.57;;;0.90;;
5391;SDS011;2719;53.624;9.786;2022-10-16T15:03:45;2.93;;;1.00;;
5391;SDS011;2719;53.624;9.786;2022-10-16T15:06:12;5.40;;;0.50;;
5391;SDS011;2719;53.624;9.786;2022-10-16T15:08:39;5.30;;;0.83;;
5391;SDS011;2719;53.624;9.786;2022-10-16T15:11:07;2.60;;;1.00;;
5391;SDS011;2719;53.624;9.786;2022-10-16T15:13:38;5.47;;;0.70;;
5391;SDS011;2719;53.624;9.786;2022-10-16T15:16:07;5.97;;;1.10;;
5391;SDS011;2719;53.624;9.786;2022-10-16T15:18:35;2.70;;;0.57;;
5391;SDS011;2719;53.624;9.786;2022-10-16T15:21:03;3.00;;;1.03;;
5391;SDS011;2719;53.624;9.786;2022-10-16T15:23:30;11.20;;;0.80;;
5391;SDS011;2719;53.624;9.786;2022-10-16T15:25:57;9.23;;;0.70;;
5391;SDS011;2719;53.624;9.786;2022-10-16T15:28:25;3.97;;;0.60;;
5391;SDS011;2719;53.624;9.786;2022-10-16T15:30:52;2.73;;;0.70;;
5391;SDS011;2719;53.624;9.786;2022-10-16T15:33:21;1.57;;;0.53;;
5391;SDS011;2719;53.624;9.786;2022-10-16T15:35:50;3.13;;;0.50;;
5391;SDS011;2719;53.624;9.786;2022-10-16T15:38:19;2.60;;;0.70;;